• Join FlightAware (Why Join?)
  • Login
  • US Flag 
03:14AM EDT


 

Airport Tracker/Info


-or-


 

Live Flight TrackerFlight Track Log ✈ RPA3496 ✈ 06-May-2014 ✈ KBOS - KPHL

Flight Track Log - Related Links

Times and Time Zones

All times are in EDT time to prevent confusion due to time zone crossing. See the RPA3496 flight status page for this flight to view local times or setup timezone preferences in your user account.

Time Position Orientation Groundspeed Altitude Reporting Facility
EDT Latitude Longitude Course Direction KTS MPH feet Rate Location/Type
12:10PM 42.3500 -71.0167 231° Southwest 145 167 900  Level KA90
12:11PM 42.3000 -71.1000 231° Southwest 248 285 4,400 2,940 Climbing KA90
12:13PM 42.2158 -71.0861 173° South 299 344 9,100 3,060 Climbing Boston Center
12:14PM 42.1425 -71.0333 152° Southeast 298 343 11,600 2,640 Climbing Boston Center
12:15PM 42.0572 -70.9514 144° Southeast 364 419 14,500 2,940 Climbing Boston Center
12:16PM 41.9603 -70.8611 145° Southeast 386 444 17,600 2,640 Climbing Boston Center
12:17PM 41.8758 -70.7889 148° Southeast 403 464 20,000 2,220 Climbing Boston Center
12:18PM 41.7661 -70.8006 185° South 406 467 22,300 1,980 Climbing Boston Center
12:19PM 41.6711 -70.8717 209° Southwest 394 453 24,000 780 Climbing Boston Center
12:20PM 41.5525 -70.9600 209° Southwest 402 463 24,000  Level Boston Center
12:21PM 41.4819 -71.0672 229° Southwest 389 448 24,000  Level Boston Center
12:22PM 41.4153 -71.1778 231° Southwest 386 444 24,000  Level Boston Center
12:23PM 41.3575 -71.2714 231° Southwest 372 428 24,000  Level Boston Center
12:24PM 41.2817 -71.3928 230° Southwest 359 413 24,000  Level Boston Center
12:25PM 41.2242 -71.4864 231° Southwest 359 413 24,000  Level Boston Center
12:26PM 41.1594 -71.5986 233° Southwest 355 409 24,000  Level Boston Center
12:27PM 41.1197 -71.7131 245° Southwest 347 399 24,000  Level Boston Center
12:28PM 41.0572 -71.8119 230° Southwest 347 399 24,000  Level Boston Center
12:29PM 40.9872 -71.9189 229° Southwest 348 400 24,000  Level Boston Center
12:30PM 40.9342 -72.0008 229° Southwest 347 399 24,000  Level Boston Center
12:31PM 40.8675 -72.1028 229° Southwest 362 417 24,000  Level Boston Center
12:32PM 40.7867 -72.2275 229° Southwest 371 427 24,000  Level Boston Center
12:33PM 40.7219 -72.3233 228° Southwest 371 427 24,000  Level Boston Center
12:34PM 40.6539 -72.4258 229° Southwest 371 427 24,000  Level Boston Center
12:35PM 40.5864 -72.5281 229° Southwest 371 427 24,000  Level Boston Center
12:36PM 40.5189 -72.6289 229° Southwest 371 427 24,000  Level Boston Center
12:37PM 40.4528 -72.7300 229° Southwest 368 423 24,000 -780 Level Boston Center
12:38PM 40.3858 -72.8303 229° Southwest 368 423 22,500 -1,860 Descending Boston Center
12:39PM 40.3056 -72.9478 228° Southwest 361 415 20,200 -1,260 Descending Boston Center
12:40PM 40.2400 -73.0461 229° Southwest 361 415 20,000 -600 Descending Boston Center
12:41PM 40.1767 -73.1386 228° Southwest 360 414 19,100 -1,260 Descending Boston Center
12:42PM 40.1125 -73.2356 229° Southwest 357 411 17,500 -1,560 Descending Boston Center
12:43PM 40.0481 -73.3289 228° Southwest 349 402 15,900 -1,620 Descending Boston Center
12:44PM 39.9847 -73.4206 228° Southwest 343 395 14,200 -1,020 Descending Boston Center
12:45PM 39.9189 -73.5169 228° Southwest 342 394 13,900 -180 Descending Boston Center
12:46PM 39.8581 -73.6089 229° Southwest 338 389 13,900  Level Boston Center
12:48PM 39.7864 -73.7231 231° Southwest 345 397 13,900  Level Washington Center
12:49PM 39.7214 -73.8272 231° Southwest 345 397 13,900  Level Washington Center
12:50PM 39.6642 -73.9175 231° Southwest 345 397 13,900  Level Washington Center
12:51PM 39.6053 -74.0131 231° Southwest 345 397 13,900  Level Washington Center
12:52PM 39.5458 -74.1061 230° Southwest 340 391 13,900  Level Washington Center
12:53PM 39.5222 -74.2142 254° West 316 364 13,900  Level Washington Center
12:54PM 39.5275 -74.3217 274° West 300 345 13,900 -540 Level Washington Center
12:56PM 39.5333 -74.5167 272° West 254 292 12,400 -1,020 Descending Philadelphia TRACON
12:57PM 39.5333 -74.6000 270° West 253 291 11,000 -1,440 Descending Philadelphia TRACON
12:58PM 39.5333 -74.7000 270° West 258 297 9,500 -1,020 Descending Philadelphia TRACON
12:59PM 39.5333 -74.7833 270° West 258 297 9,000 -720 Descending Philadelphia TRACON
12:59PM 39.5333 -74.8667 270° West 255 293 8,300 -1,440 Descending Philadelphia TRACON
01:00PM 39.5500 -74.9667 282° West 265 305 6,300 -1,140 Descending Philadelphia TRACON
01:02PM 39.6167 -74.9833 349° North 264 304 6,000 -240 Descending Philadelphia TRACON
01:02PM 39.6833 -74.9667 11° North 263 303 5,900 -900 Descending Philadelphia TRACON
01:03PM 39.7667 -74.9500 North 262 302 4,300 -960 Descending Philadelphia TRACON
01:04PM 39.8333 -74.9333 11° North 260 299 4,000 -180 Descending Philadelphia TRACON
01:05PM 39.8833 -74.9333 360° North 184 212 4,000  Level Philadelphia TRACON
01:07PM 39.9333 -74.9500 346° North 186 214 4,000 -300 Level Philadelphia TRACON
01:08PM 39.9167 -75.0000 247° West 170 196 3,400 -780 Descending Philadelphia TRACON
01:09PM 39.9000 -75.0667 252° West 174 200 2,500 -960 Descending Philadelphia TRACON
01:10PM 39.9000 -75.1333 270° West 164 189 1,500 -840 Descending Philadelphia TRACON
01:11PM 39.8833 -75.1833 247° West 124 143 800 -720 Descending Philadelphia TRACON
01:13PM 39.8667 -75.2333 266° West  Level FlightAware Approximate
01:20PM 39.8722 -75.2409 266° West  Level Estimated